Time;durP1;ratioP1;P1;durP2;ratioP2;P2;SDS_P1;SDS_P2;PMS_P1;PMS_P2;Temp;Humidity;BMP_temperature;BMP_pressure;BME280_temperature;BME280_humidity;BME280_pressure;Samples;Min_cycle;Max_cycle;Signal;HPM_P1;HPM_P2
2023/01/24 00:03:56;;;;;;;27.52;14.20;;;;;;;4.17;89.83;102606.19;8360367;28;20052;-51
2023/01/24 00:07:57;;;;;;;21.27;12.30;;;;;;;4.23;88.49;102596.13;8359787;28;20045;-56
2023/01/24 00:11:57;;;;;;;21.65;12.00;;;;;;;4.26;88.56;102611.22;8360729;28;20040;-56
2023/01/24 00:16:10;;;;;;;23.52;11.93;;;;;;;4.26;88.41;102600.50;8374549;28;20033;-55
2023/01/24 00:20:10;;;;;;;24.50;12.68;;;;;;;4.25;88.39;102614.81;8360929;28;20060;-53
2023/01/24 00:24:11;;;;;;;23.25;12.25;;;;;;;4.28;88.63;102604.03;8360496;28;20048;-56
2023/01/24 00:28:11;;;;;;;19.50;11.18;;;;;;;4.28;88.24;102606.69;8360313;28;20129;-57
2023/01/24 00:32:12;;;;;;;18.85;11.15;;;;;;;4.29;88.22;102611.13;8341349;28;20045;-57
2023/01/24 00:36:13;;;;;;;23.60;13.23;;;;;;;4.28;88.42;102604.03;8359941;28;20048;-56
2023/01/24 00:40:14;;;;;;;19.35;11.68;;;;;;;4.30;88.06;102608.38;8358983;28;20037;-57
2023/01/24 00:44:14;;;;;;;22.45;12.82;;;;;;;4.30;88.16;102611.06;8359645;28;20041;-58
2023/01/24 00:48:15;;;;;;;23.75;12.32;;;;;;;4.34;87.90;102615.41;8359823;28;20051;-56
2023/01/24 00:52:15;;;;;;;19.48;10.82;;;;;;;4.38;86.72;102611.69;8359708;28;20037;-55
2023/01/24 00:56:16;;;;;;;18.23;10.27;;;;;;;4.44;86.02;102615.97;8351174;28;20064;-57
2023/01/24 01:00:17;;;;;;;17.33;10.82;;;;;;;4.42;86.53;102612.50;8359691;28;20037;-57
2023/01/24 01:04:17;;;;;;;20.40;10.90;;;;;;;4.38;86.78;102617.06;8358852;28;20100;-56
2023/01/24 01:08:17;;;;;;;22.50;12.27;;;;;;;4.31;88.40;102618.19;8358183;28;20094;-56
2023/01/24 01:12:18;;;;;;;18.40;11.40;;;;;;;4.29;88.21;102616.47;8358506;28;20041;-56
2023/01/24 01:16:19;;;;;;;22.02;11.48;;;;;;;4.32;87.77;102616.38;8339994;28;20037;-56
2023/01/24 01:20:20;;;;;;;20.23;12.18;;;;;;;4.29;88.79;102621.81;8358833;28;20037;-52
2023/01/24 01:24:20;;;;;;;19.00;11.38;;;;;;;4.25;89.05;102625.53;8358414;28;20044;-56
2023/01/24 01:28:20;;;;;;;21.15;11.63;;;;;;;4.25;88.84;102614.81;8358803;28;20218;-56
2023/01/24 01:32:21;;;;;;;22.05;12.50;;;;;;;4.22;89.31;102609.56;8358855;28;20087;-56
2023/01/24 01:36:21;;;;;;;24.63;12.43;;;;;;;4.24;88.93;102607.72;8358519;28;20032;-56
2023/01/24 01:40:22;;;;;;;19.88;11.10;;;;;;;4.22;88.77;102614.91;8358449;28;20464;-57
2023/01/24 01:44:47;;;;;;;19.02;11.18;;;;;;;4.22;88.64;102614.91;8356163;28;20041;-57
2023/01/24 01:48:52;;;;;;;20.30;10.75;;;;;;;4.25;88.19;102620.19;8339913;28;20048;-54
2023/01/24 01:52:53;;;;;;;;;;;;;;;4.28;88.06;102625.44;8345447;28;20045;-57
2023/01/24 01:56:59;;;;;;;18.30;9.90;;;;;;;4.25;87.97;102630.88;8356430;28;20004;-55
2023/01/24 02:01:00;;;;;;;15.88;9.70;;;;;;;4.26;87.64;102616.56;8356285;28;20048;-53
2023/01/24 02:05:04;;;;;;;14.02;9.77;;;;;;;4.26;87.40;102621.91;8356743;28;20061;-57
2023/01/24 02:09:08;;;;;;;13.45;9.13;;;;;;;4.21;88.05;102618.53;8357089;28;20429;-55
2023/01/24 02:13:09;;;;;;;13.02;9.43;;;;;;;4.23;87.17;102624.69;8339261;28;20042;-55
2023/01/24 02:17:09;;;;;;;14.48;8.80;;;;;;;4.24;87.40;102624.66;8351224;28;20052;-56
2023/01/24 02:21:15;;;;;;;15.80;9.95;;;;;;;4.23;87.49;102628.25;8356400;28;20044;-57
2023/01/24 02:25:26;;;;;;;11.95;8.20;;;;;;;4.23;86.94;102632.72;8357340;28;20065;-56
2023/01/24 02:29:26;;;;;;;15.23;9.27;;;;;;;4.22;86.67;102633.66;8351627;28;20048;-56
2023/01/24 02:33:27;;;;;;;14.07;8.05;;;;;;;4.23;86.21;102622.03;8339981;28;20486;-56
2023/01/24 02:37:27;;;;;;;12.90;8.70;;;;;;;4.20;86.88;102616.78;8357198;28;20044;-56
2023/01/24 02:41:36;;;;;;;14.40;9.38;;;;;;;4.23;86.14;102622.03;8357652;28;20045;-55
2023/01/24 02:45:38;;;;;;;15.77;9.07;;;;;;;4.19;87.53;102625.72;8356884;28;20063;-57
2023/01/24 02:49:38;;;;;;;11.88;8.60;;;;;;;4.19;86.81;102625.72;8357053;28;20053;-55
2023/01/24 02:53:39;;;;;;;13.25;9.23;;;;;;;4.20;86.58;102611.44;8355953;28;21621;-56
2023/01/24 02:58:10;;;;;;;16.75;10.20;;;;;;;4.18;87.11;102611.50;8360362;28;20139;-57
2023/01/24 03:02:00;;;;;;;18.73;9.80;;;;;;;4.18;86.26;102607.94;8363176;28;20037;-57
2023/01/24 03:06:01;;;;;;;16.20;9.75;;;;;;;4.16;86.52;102605.31;8362531;28;20130;-56
2023/01/24 03:10:06;;;;;;;14.30;9.38;;;;;;;4.17;86.89;102608.88;8362495;28;20099;-51
2023/01/24 03:35:55;;;;;;;18.95;11.57;;;;;;;4.07;88.28;102595.78;8354196;28;20043;-52
2023/01/24 03:40:00;;;;;;;23.75;13.23;;;;;;;4.01;88.63;102595.97;8361913;28;20113;-52
2023/01/24 03:44:04;;;;;;;25.92;14.05;;;;;;;3.94;89.27;102599.72;8360572;28;20037;-52
2023/01/24 03:48:12;;;;;;;21.48;12.52;;;;;;;3.99;88.51;102603.16;8360760;28;20116;-52
2023/01/24 03:52:28;;;;;;;21.95;12.65;;;;;;;3.98;89.42;102604.09;8361898;28;20047;-52
2023/01/24 03:56:30;;;;;;;18.95;11.02;;;;;;;4.00;88.05;102598.69;8343169;28;20041;-47
2023/01/24 04:00:35;;;;;;;14.20;9.93;;;;;;;3.96;87.97;102603.25;8361514;28;20033;-50
2023/01/24 04:05:12;;;;;;;18.30;10.48;;;;;;;3.93;87.68;102598.00;8360310;28;20549;-50
2023/01/24 04:09:01;;;;;;;21.85;12.23;;;;;;;3.94;87.93;102598.88;8361065;28;20044;-50
2023/01/24 04:13:03;;;;;;;21.55;11.60;;;;;;;3.93;88.08;102603.34;8360347;28;20120;-54
2023/01/24 04:17:03;;;;;;;20.77;11.38;;;;;;;3.90;87.44;102598.09;8360554;28;20544;-52
2023/01/24 04:21:13;;;;;;;17.63;10.52;;;;;;;3.92;87.92;102601.59;8360537;28;20060;-51
2023/01/24 04:25:14;;;;;;;19.83;11.00;;;;;;;3.88;87.63;102605.28;8359729;28;20041;-50
2023/01/24 04:29:18;;;;;;;18.27;11.35;;;;;;;3.86;87.48;102606.25;8351867;28;20439;-51
2023/01/24 04:33:21;;;;;;;19.70;11.43;;;;;;;3.84;88.17;102606.31;8359765;28;20079;-51
2023/01/24 04:37:22;;;;;;;20.10;10.73;;;;;;;3.84;88.50;102616.13;8360248;28;20040;-49
2023/01/24 04:41:22;;;;;;;20.58;10.32;;;;;;;3.82;88.51;102608.13;8358544;28;20029;-51
2023/01/24 04:45:24;;;;;;;21.15;11.63;;;;;;;3.81;88.04;102603.72;8359382;28;20052;-51
2023/01/24 04:49:25;;;;;;;18.05;10.60;;;;;;;3.82;87.77;102605.47;8359348;28;20049;-52
2023/01/24 04:53:28;;;;;;;21.58;11.77;;;;;;;3.82;87.46;102604.59;8359304;28;20040;-51
2023/01/24 04:57:31;;;;;;;20.98;11.75;;;;;;;3.82;87.61;102600.09;8358981;28;20052;-52
2023/01/24 05:01:33;;;;;;;16.42;10.10;;;;;;;3.74;88.36;102610.19;8359217;28;20045;-52
2023/01/24 05:05:43;;;;;;;18.63;10.27;;;;;;;3.77;87.64;102602.06;8356888;28;20040;-53
2023/01/24 05:09:43;;;;;;;21.73;12.80;;;;;;;3.76;86.98;102604.78;8358318;28;20041;-54
2023/01/24 05:13:45;;;;;;;19.63;11.10;;;;;;;3.79;87.25;102589.50;8355711;28;20941;-52
2023/01/24 05:17:46;;;;;;;16.70;10.10;;;;;;;3.72;87.91;102604.00;8359415;28;20052;-51
2023/01/24 05:21:51;;;;;;;19.95;10.75;;;;;;;3.75;87.25;102603.03;8302151;28;20558;-56
2023/01/24 05:25:51;;;;;;;24.02;11.23;;;;;;;3.73;88.08;102610.22;8349748;28;20715;-56
2023/01/24 05:29:53;;;;;;;18.42;11.35;;;;;;;3.74;88.10;102611.97;8356101;28;20086;-56
2023/01/24 05:33:54;;;;;;;23.23;12.27;;;;;;;3.71;88.27;102615.63;8340558;28;20044;-57
2023/01/24 05:37:55;;;;;;;19.98;11.35;;;;;;;3.73;87.83;102612.91;8341560;28;20037;-55
2023/01/24 05:41:57;;;;;;;19.63;10.95;;;;;;;3.73;88.25;102616.44;8340900;28;20048;-57
2023/01/24 05:46:07;;;;;;;20.73;11.05;;;;;;;3.69;88.31;102617.47;8327677;28;20569;-55
2023/01/24 05:50:13;;;;;;;22.23;11.35;;;;;;;3.64;89.17;102613.19;8333979;28;20139;-56
2023/01/24 05:54:13;;;;;;;20.15;12.32;;;;;;;3.59;89.25;102624.00;8339954;28;20497;-57
2023/01/24 05:58:34;;;;;;;19.05;11.02;;;;;;;3.57;89.60;102620.50;8351572;28;20090;-53
2023/01/24 06:02:40;;;;;;;20.52;11.35;;;;;;;3.65;88.81;102629.19;8349763;28;20069;-52
2023/01/24 06:06:42;;;;;;;22.85;11.57;;;;;;;3.65;89.08;102631.84;8353252;28;20448;-53
2023/01/24 06:10:43;;;;;;;22.50;11.15;;;;;;;3.62;89.07;102628.38;8354572;28;20045;-51
2023/01/24 06:14:45;;;;;;;27.15;11.77;;;;;;;3.67;88.68;102632.69;8335567;28;20056;-51
2023/01/24 06:18:47;;;;;;;20.17;11.07;;;;;;;3.67;88.66;102642.50;8352610;28;20045;-51
2023/01/24 06:22:52;;;;;;;19.70;10.77;;;;;;;3.66;88.58;102646.97;8350848;28;20076;-53
2023/01/24 06:26:55;;;;;;;16.85;10.18;;;;;;;3.63;88.46;102647.06;8353144;28;20624;-53
2023/01/24 06:31:03;;;;;;;18.25;10.57;;;;;;;3.63;88.26;102655.09;8353353;28;20098;-53
2023/01/24 06:35:16;;;;;;;19.83;11.23;;;;;;;3.62;88.76;102661.38;8349106;28;20049;-51
2023/01/24 06:39:16;;;;;;;21.60;11.75;;;;;;;3.68;88.87;102666.53;8331863;28;20033;-55
2023/01/24 06:43:25;;;;;;;22.92;11.43;;;;;;;3.64;89.15;102672.91;8340355;28;20120;-55
2023/01/24 06:47:27;;;;;;;22.63;11.70;;;;;;;3.61;89.36;102675.66;8339280;28;20509;-54
2023/01/24 06:51:28;;;;;;;18.00;11.02;;;;;;;3.61;89.19;102681.03;8354152;28;20514;-53
2023/01/24 06:55:29;;;;;;;22.00;12.18;;;;;;;3.59;89.76;102680.19;8353438;28;20462;-54
2023/01/24 06:59:30;;;;;;;20.83;10.88;;;;;;;3.59;89.16;102677.50;8353390;28;20128;-55
2023/01/24 07:03:30;;;;;;;19.67;11.73;;;;;;;3.56;89.29;102677.59;8358484;28;20047;-54
2023/01/24 07:07:31;;;;;;;20.67;11.70;;;;;;;3.57;89.62;102689.16;8359704;28;20448;-53
2023/01/24 07:11:32;;;;;;;24.30;13.40;;;;;;;3.58;88.96;102697.16;8359227;28;20090;-55
2023/01/24 07:15:33;;;;;;;22.48;12.90;;;;;;;3.61;89.03;102696.19;8358785;28;20041;-55
2023/01/24 07:19:34;;;;;;;20.40;12.68;;;;;;;3.58;89.04;102696.25;8359681;28;20036;-54
2023/01/24 07:23:36;;;;;;;21.92;12.18;;;;;;;3.58;88.78;102702.50;8358958;28;20044;-53
2023/01/24 07:27:36;;;;;;;17.08;10.18;;;;;;;3.59;87.95;102704.25;8358856;28;20053;-55
2023/01/24 07:31:38;;;;;;;16.10;10.07;;;;;;;3.61;87.82;102713.13;8359226;28;20059;-59
2023/01/24 07:35:39;;;;;;;17.90;11.18;;;;;;;3.61;88.29;102717.56;8358043;28;20413;-57
2023/01/24 07:39:39;;;;;;;18.98;10.75;;;;;;;3.62;88.32;102722.88;8357990;28;20460;-58
2023/01/24 07:43:40;;;;;;;23.15;11.82;;;;;;;3.59;88.24;102730.97;8338299;28;20033;-59
2023/01/24 07:47:40;;;;;;;18.30;11.90;;;;;;;3.61;87.56;102733.63;8358261;28;20048;-59
2023/01/24 07:51:41;;;;;;;17.95;10.27;;;;;;;3.59;87.51;102730.97;8358561;28;20498;-59
2023/01/24 07:55:42;;;;;;;20.77;11.60;;;;;;;3.59;88.46;102741.69;8347153;28;20039;-58
2023/01/24 07:59:42;;;;;;;18.88;10.82;;;;;;;3.57;87.90;102735.50;8357851;28;20044;-58
2023/01/24 08:03:43;;;;;;;19.27;11.25;;;;;;;3.61;87.70;102739.84;8357715;28;20033;-59
2023/01/24 08:07:43;;;;;;;17.05;10.32;;;;;;;3.61;88.19;102739.84;8357650;28;20048;-59
2023/01/24 08:11:44;;;;;;;18.38;10.68;;;;;;;3.62;88.44;102738.94;8357480;28;20059;-59
2023/01/24 08:15:44;;;;;;;20.80;11.43;;;;;;;3.64;88.21;102742.44;8356882;28;20033;-59
2023/01/24 08:19:45;;;;;;;20.88;12.73;;;;;;;3.66;88.52;102751.28;8334865;28;20045;-58
2023/01/24 08:23:45;;;;;;;20.85;11.80;;;;;;;3.67;87.88;102754.84;8325447;28;20041;-58
2023/01/24 08:27:46;;;;;;;21.38;12.35;;;;;;;3.67;88.52;102749.50;8357159;28;20037;-56
2023/01/24 08:31:48;;;;;;;20.40;11.32;;;;;;;3.68;87.57;102762.81;8356725;28;20053;-58
2023/01/24 08:35:48;;;;;;;18.42;10.75;;;;;;;3.65;87.95;102757.56;8347477;28;20041;-58
2023/01/24 08:39:49;;;;;;;19.63;10.93;;;;;;;3.67;88.38;102753.06;8346980;28;20056;-58
2023/01/24 08:43:51;;;;;;;22.63;11.68;;;;;;;3.67;88.14;102761.09;8334187;28;20037;-56
2023/01/24 08:47:53;;;;;;;21.23;11.55;;;;;;;3.72;87.86;102759.13;8347775;28;20040;-57
2023/01/24 08:51:58;;;;;;;19.33;11.85;;;;;;;3.70;87.67;102761.00;8356518;28;20043;-59
2023/01/24 08:55:59;;;;;;;21.10;12.23;;;;;;;3.70;87.14;102763.69;8355069;28;20040;-59
2023/01/24 08:59:59;;;;;;;21.70;11.75;;;;;;;3.72;86.99;102775.19;8337776;28;20051;-57
2023/01/24 09:03:59;;;;;;;20.73;11.57;;;;;;;3.72;86.46;102775.19;8354464;28;20564;-58
2023/01/24 09:08:00;;;;;;;20.45;11.50;;;;;;;3.76;86.69;102771.50;8342704;28;20044;-59
2023/01/24 09:12:00;;;;;;;17.63;10.95;;;;;;;3.78;87.13;102771.47;8355753;28;20501;-59
2023/01/24 09:16:01;;;;;;;18.70;10.63;;;;;;;3.78;86.82;102780.38;8368117;28;20037;-58
2023/01/24 09:20:01;;;;;;;20.27;10.00;;;;;;;3.77;86.49;102778.63;8346438;28;20037;-56
2023/01/24 09:24:02;;;;;;;17.50;11.38;;;;;;;3.82;87.31;102776.69;8347301;28;20123;-54
2023/01/24 09:28:03;;;;;;;22.92;11.57;;;;;;;3.85;87.32;102781.94;8337760;28;20041;-58
2023/01/24 09:32:03;;;;;;;18.38;10.85;;;;;;;3.92;87.17;102791.59;8351740;28;20123;-59
2023/01/24 09:36:04;;;;;;;17.52;11.25;;;;;;;3.90;86.81;102782.72;8337218;28;20043;-57
2023/01/24 09:40:06;;;;;;;18.35;11.07;;;;;;;3.92;86.81;102783.56;8353232;28;20055;-59
2023/01/24 09:44:34;;;;;;;16.38;11.15;;;;;;;3.96;87.06;102787.88;8346936;28;20041;-56
2023/01/24 09:48:34;;;;;;;18.63;11.30;;;;;;;3.97;86.69;102786.97;8316639;28;20041;-59
2023/01/24 09:52:45;;;;;;;16.10;11.00;;;;;;;4.01;87.12;102794.00;8321609;28;20037;-56
2023/01/24 09:56:46;;;;;;;15.25;10.00;;;;;;;3.98;86.74;102793.19;8348292;28;20464;-58
2023/01/24 10:00:47;;;;;;;20.05;11.45;;;;;;;4.05;87.33;102792.97;8336324;28;20544;-59
2023/01/24 10:04:49;;;;;;;16.33;10.45;;;;;;;4.08;87.75;102795.56;8355018;28;20167;-59
2023/01/24 10:09:15;;;;;;;20.02;11.43;;;;;;;4.11;86.84;102796.41;8361078;28;20322;-59
2023/01/24 10:13:55;;;;;;;16.08;10.25;;;;;;;4.11;86.57;102804.44;8351941;28;20167;-60
2023/01/24 10:18:35;;;;;;;17.67;11.23;;;;;;;4.17;86.95;102798.91;8356658;28;20090;-57
2023/01/24 10:23:03;;;;;;;16.67;10.93;;;;;;;4.14;86.34;102799.00;8347477;28;20560;-58
2023/01/24 10:27:20;;;;;;;12.88;9.57;;;;;;;4.18;86.76;102798.88;8357573;28;20652;-58
2023/01/24 10:31:28;;;;;;;14.45;8.77;;;;;;;4.21;86.56;102796.06;8335904;28;20037;-58
2023/01/24 10:35:35;;;;;;;14.23;8.98;;;;;;;4.28;86.94;102802.16;8341351;28;20440;-57
2023/01/24 10:39:37;;;;;;;12.48;8.45;;;;;;;4.35;87.60;102803.72;8360117;28;20437;-58
2023/01/24 10:43:39;;;;;;;18.33;10.13;;;;;;;4.26;85.61;102798.63;8326890;28;20040;-59
2023/01/24 10:52:16;;;;;;;18.65;10.38;;;;;;;4.28;86.00;102791.44;8352616;27;20388;-57
2023/01/24 10:56:19;;;;;;;13.02;9.48;;;;;;;4.29;85.11;102785.16;8354939;28;20131;-57
2023/01/24 11:04:34;;;;;;;12.20;8.90;;;;;;;4.30;85.54;102789.59;8350907;27;20366;-57
2023/01/24 11:08:36;;;;;;;17.48;9.77;;;;;;;4.31;85.29;102777.97;8350955;28;20033;-56
2023/01/24 11:12:47;;;;;;;15.75;10.65;;;;;;;4.33;85.33;102778.78;8350103;28;20071;-56
2023/01/24 11:16:51;;;;;;;18.00;11.30;;;;;;;4.32;85.54;102771.66;8350351;28;20067;-58
2023/01/24 11:21:13;;;;;;;14.48;9.07;;;;;;;4.41;85.99;102777.63;8322424;28;20039;-59
2023/01/24 11:25:14;;;;;;;14.63;9.70;;;;;;;4.36;85.69;102768.00;8349674;28;20041;-56
2023/01/24 11:29:16;;;;;;;17.63;11.63;;;;;;;4.40;85.65;102765.19;8350186;28;20037;-59
2023/01/24 11:38:18;;;;;;;17.35;10.75;;;;;;;4.42;85.50;102767.81;8320297;28;20199;-56
2023/01/24 11:42:45;;;;;;;20.27;10.80;;;;;;;4.42;85.24;102762.44;8317634;28;20514;-58
2023/01/24 11:47:13;;;;;;;14.98;10.00;;;;;;;4.45;85.55;102763.22;8317511;28;20052;-59
2023/01/24 11:56:03;;;;;;;15.93;10.85;;;;;;;4.50;86.36;102755.03;8394108;27;20468;-56
2023/01/24 12:00:31;;;;;;;19.73;11.32;;;;;;;4.54;85.64;102749.53;8383635;28;20049;-58
2023/01/24 12:09:17;;;;;;;17.20;12.00;;;;;;;4.46;84.63;102740.88;8335231;27;20847;-58
2023/01/24 12:13:48;;;;;;;16.45;11.20;;;;;;;4.44;84.88;102737.38;8328433;28;20072;-59
2023/01/24 12:18:24;;;;;;;17.38;11.55;;;;;;;4.47;84.89;102733.72;8344020;28;20457;-56
2023/01/24 12:22:27;;;;;;;22.55;13.65;;;;;;;4.59;85.68;102727.97;8349582;28;20048;-55
2023/01/24 12:26:34;;;;;;;22.42;12.95;;;;;;;4.62;85.79;102722.50;8301219;28;20034;-57
2023/01/24 12:30:40;;;;;;;17.83;11.82;;;;;;;4.46;84.75;102726.63;8307359;28;20048;-58
2023/01/24 12:34:48;;;;;;;21.27;12.88;;;;;;;4.42;85.05;102724.97;8364842;28;20037;-58
2023/01/24 12:38:55;;;;;;;20.30;12.40;;;;;;;4.46;85.13;102711.44;8315640;28;20407;-58
2023/01/24 12:43:04;;;;;;;21.63;11.90;;;;;;;4.50;85.23;102710.41;8317756;28;20041;-57
2023/01/24 12:47:25;;;;;;;21.88;13.90;;;;;;;4.56;86.00;102703.97;8328903;28;20045;-57
2023/01/24 12:51:31;;;;;;;17.98;12.55;;;;;;;4.55;85.29;102705.78;8335546;28;20038;-58
2023/01/24 12:55:39;;;;;;;21.58;13.68;;;;;;;4.57;85.60;102700.38;8321515;28;20045;-56
2023/01/24 12:59:39;;;;;;;26.02;14.60;;;;;;;4.57;85.17;102697.69;8334015;28;20092;-58
2023/01/24 13:08:47;;;;;;;29.80;16.15;;;;;;;4.60;85.54;102692.25;8402870;27;20431;-57
2023/01/24 13:12:49;;;;;;;22.60;14.95;;;;;;;4.54;84.95;102687.09;8399951;27;20052;-57
2023/01/24 13:17:30;;;;;;;32.70;14.63;;;;;;;4.59;85.66;102675.28;8394779;27;20376;-52
2023/01/24 13:21:59;;;;;;;27.05;15.57;;;;;;;4.61;86.54;102688.63;8386538;27;20052;-57
2023/01/24 13:30:26;;;;;;;24.77;15.23;;;;;;;4.60;85.18;102686.88;8345499;27;20386;-56
2023/01/24 13:34:32;;;;;;;24.95;15.73;;;;;;;4.53;84.96;102674.59;8348926;28;20368;-55
2023/01/24 13:38:42;;;;;;;22.88;16.38;;;;;;;4.55;85.20;102683.47;8359664;28;20091;-56
2023/01/24 13:42:44;;;;;;;26.42;15.32;;;;;;;4.56;85.10;102679.84;8350138;28;20030;-57
2023/01/24 13:59:56;;;;;;;28.15;17.98;;;;;;;4.61;85.44;102672.56;8315521;28;20516;-60
2023/01/24 14:04:00;;;;;;;20.63;13.55;;;;;;;4.58;85.19;102673.53;8315291;28;20475;-56
2023/01/24 14:08:14;;;;;;;21.45;12.85;;;;;;;4.58;85.25;102683.38;8316530;28;20045;-57
2023/01/24 14:12:18;;;;;;;20.13;12.40;;;;;;;4.57;85.77;102684.31;8317185;28;20045;-56
2023/01/24 14:20:44;;;;;;;21.15;13.55;;;;;;;4.55;86.34;102696.84;8354013;27;20395;-57
2023/01/24 14:25:20;;;;;;;24.17;14.07;;;;;;;4.53;85.67;102693.34;8342895;28;20124;-57
2023/01/24 14:29:33;;;;;;;21.13;14.02;;;;;;;4.52;85.79;102689.81;8329045;28;20037;-55
2023/01/24 14:33:45;;;;;;;20.80;13.95;;;;;;;4.53;86.24;102696.91;8292544;28;20120;-58
2023/01/24 14:37:47;;;;;;;24.52;14.15;;;;;;;4.48;85.63;102692.63;8316091;28;20030;-54
2023/01/24 14:41:51;;;;;;;23.35;13.77;;;;;;;4.48;86.00;102692.63;8321664;28;20499;-54
2023/01/24 14:45:52;;;;;;;26.15;15.70;;;;;;;4.48;86.04;102703.34;8307923;28;20376;-54
2023/01/24 14:49:55;;;;;;;29.33;14.85;;;;;;;4.49;85.99;102702.41;8311713;28;20132;-57
2023/01/24 14:53:55;;;;;;;27.20;14.73;;;;;;;4.46;86.97;102699.81;8318179;28;20049;-54
2023/01/24 14:57:56;;;;;;;26.05;14.23;;;;;;;4.42;85.79;102700.88;8316628;28;20042;-57
2023/01/24 15:01:56;;;;;;;27.52;14.30;;;;;;;4.47;85.87;102698.88;8315567;28;20137;-56
2023/01/24 15:06:03;;;;;;;24.92;14.48;;;;;;;4.46;86.07;102705.19;8316759;28;20045;-58
2023/01/24 15:10:12;;;;;;;22.88;12.93;;;;;;;4.43;86.64;102702.59;8313486;28;20037;-55
2023/01/24 15:14:19;;;;;;;24.77;15.32;;;;;;;4.42;87.05;102684.78;8332133;28;20482;-55
2023/01/24 15:18:35;;;;;;;25.70;16.67;;;;;;;4.38;85.93;102685.78;8330682;28;20046;-56
2023/01/24 15:22:38;;;;;;;24.15;15.40;;;;;;;4.42;86.99;102692.81;8342471;28;20038;-55
2023/01/24 15:26:41;;;;;;;23.33;14.77;;;;;;;4.39;86.95;102698.28;8331840;28;20037;-55
2023/01/24 15:30:51;;;;;;;22.27;13.55;;;;;;;4.36;86.42;102707.25;8332707;28;20131;-59
2023/01/24 15:39:39;;;;;;;23.50;16.10;;;;;;;4.30;86.36;102709.28;8309645;28;20401;-56
2023/01/24 15:44:07;;;;;;;19.73;13.30;;;;;;;4.29;85.72;102718.22;8309759;28;20114;-57
2023/01/24 15:48:21;;;;;;;22.90;14.75;;;;;;;4.27;85.52;102720.06;8312303;28;20124;-59
2023/01/24 15:52:21;;;;;;;22.98;14.98;;;;;;;4.29;86.55;102718.22;8313644;28;20042;-60
2023/01/24 15:56:23;;;;;;;32.33;14.95;;;;;;;4.24;86.08;102721.03;8304108;28;20100;-59
2023/01/24 16:00:24;;;;;;;24.50;15.02;;;;;;;4.24;86.83;102709.47;8310722;28;20515;-58
2023/01/24 16:04:25;;;;;;;25.27;14.43;;;;;;;4.23;86.25;102707.69;8313613;28;20138;-59
2023/01/24 16:08:26;;;;;;;22.65;12.90;;;;;;;4.22;85.73;102713.97;8299215;28;20282;-57
2023/01/24 16:12:33;;;;;;;28.20;15.95;;;;;;;4.17;86.43;102718.63;8303937;28;20450;-56
2023/01/24 16:16:34;;;;;;;25.13;14.23;;;;;;;4.20;85.86;102707.81;8286780;28;20057;-60
2023/01/24 16:20:35;;;;;;;21.75;13.95;;;;;;;4.18;85.76;102710.53;8298171;28;20108;-58
2023/01/24 16:24:35;;;;;;;17.50;11.95;;;;;;;4.11;86.26;102711.63;8304545;28;20089;-57
2023/01/24 16:28:37;;;;;;;21.05;13.15;;;;;;;4.13;85.77;102706.22;8288887;28;20323;-58
2023/01/24 16:32:37;;;;;;;25.42;14.57;;;;;;;4.13;86.62;102703.53;8302789;28;20041;-58
2023/01/24 16:36:37;;;;;;;34.58;17.27;;;;;;;4.09;86.26;102706.31;8300630;28;20591;-57
2023/01/24 16:40:39;;;;;;;26.63;15.85;;;;;;;4.07;86.51;102716.22;8285076;28;20044;-58
2023/01/24 16:44:39;;;;;;;27.65;16.50;;;;;;;4.07;86.54;102713.53;8301734;28;20038;-55
2023/01/24 16:48:39;;;;;;;26.27;16.45;;;;;;;4.05;86.44;102710.00;8291259;28;20561;-57
2023/01/24 16:52:41;;;;;;;22.40;13.70;;;;;;;4.04;85.42;102716.31;8290025;28;20061;-58
2023/01/24 16:56:42;;;;;;;25.15;15.32;;;;;;;3.99;85.72;102720.91;8292417;28;20042;-58
2023/01/24 17:00:42;;;;;;;36.30;21.08;;;;;;;4.01;85.16;102715.50;8289191;28;20046;-55
2023/01/24 17:04:43;;;;;;;21.70;14.35;;;;;;;4.05;84.99;102725.19;8290514;28;20491;-57
2023/01/24 17:08:44;;;;;;;26.70;14.38;;;;;;;4.05;86.00;102731.44;8290110;28;20254;-58
2023/01/24 17:12:44;;;;;;;24.45;15.20;;;;;;;4.02;86.00;102726.16;8273322;28;20044;-58
2023/01/24 17:16:47;;;;;;;25.75;16.42;;;;;;;4.00;85.47;102713.75;8293429;28;20045;-58
2023/01/24 17:20:47;;;;;;;21.00;14.38;;;;;;;3.97;85.83;102720.06;8292743;28;20491;-57
2023/01/24 17:24:48;;;;;;;23.25;15.23;;;;;;;3.97;85.86;102720.06;8289277;28;20508;-58
2023/01/24 17:28:48;;;;;;;25.48;15.65;;;;;;;3.95;86.32;102726.38;8292697;28;20038;-58
2023/01/24 17:32:49;;;;;;;24.00;14.73;;;;;;;3.94;86.02;102722.81;8279359;28;20496;-57
2023/01/24 17:36:50;;;;;;;26.77;13.85;;;;;;;3.94;86.38;102717.47;8277822;28;20188;-56
2023/01/24 17:40:51;;;;;;;23.83;15.60;;;;;;;3.96;86.77;102717.44;8290771;28;20049;-57
2023/01/24 17:44:52;;;;;;;26.35;15.25;;;;;;;3.89;86.51;102711.41;8291570;28;20057;-58
2023/01/24 17:48:53;;;;;;;22.83;13.95;;;;;;;3.90;86.13;102720.28;8307525;28;20037;-57
2023/01/24 17:52:54;;;;;;;19.08;12.32;;;;;;;3.89;85.56;102724.78;8291429;28;20053;-58
2023/01/24 17:56:54;;;;;;;23.77;13.70;;;;;;;3.90;86.56;102720.28;8290211;28;20057;-58
2023/01/24 18:00:55;;;;;;;23.17;14.23;;;;;;;3.86;86.71;102719.50;8286337;28;20405;-57
2023/01/24 18:04:55;;;;;;;26.65;15.18;;;;;;;3.83;87.17;102714.25;8274607;28;20076;-58
2023/01/24 18:08:56;;;;;;;24.42;15.27;;;;;;;3.83;87.26;102719.59;8274924;28;20406;-57
2023/01/24 18:12:56;;;;;;;21.70;14.10;;;;;;;3.85;86.27;102720.41;8289686;28;20038;-58
2023/01/24 18:16:56;;;;;;;24.25;15.40;;;;;;;3.84;86.40;102721.34;8288741;28;20054;-58
2023/01/24 18:20:57;;;;;;;22.98;13.70;;;;;;;3.82;86.55;102717.81;8291167;28;20125;-58
2023/01/24 18:24:59;;;;;;;24.80;15.20;;;;;;;3.82;87.11;102715.16;8291209;28;20065;-58
2023/01/24 18:28:59;;;;;;;23.98;15.00;;;;;;;3.80;86.79;102708.09;8288480;28;20254;-59
2023/01/24 18:33:00;;;;;;;25.63;16.73;;;;;;;3.77;87.99;102713.53;8286543;28;20041;-58
2023/01/24 18:37:00;;;;;;;30.88;17.92;;;;;;;3.74;88.34;102709.16;8277635;28;20046;-58
2023/01/24 18:41:01;;;;;;;32.90;18.48;;;;;;;3.77;88.17;102714.44;8293105;28;20088;-59
2023/01/24 18:45:02;;;;;;;35.28;20.80;;;;;;;3.76;88.77;102723.34;8274683;28;20419;-56
2023/01/24 18:49:02;;;;;;;68.00;30.23;;;;;;;3.72;87.75;102710.13;8287489;28;20132;-58
2023/01/24 18:53:03;;;;;;;31.83;18.83;;;;;;;3.70;87.33;102707.50;8287982;28;20061;-58
2023/01/24 18:57:04;;;;;;;28.75;16.08;;;;;;;3.70;86.91;102707.50;8286383;28;20034;-58
2023/01/24 19:01:18;;;;;;;31.02;18.60;;;;;;;3.66;87.33;102705.81;8288127;28;20568;-57
2023/01/24 19:05:18;;;;;;;33.63;19.50;;;;;;;3.67;86.02;102696.91;8287883;28;20486;-56
2023/01/24 19:09:19;;;;;;;32.65;18.30;;;;;;;3.64;86.32;102696.97;8269577;28;20453;-59
2023/01/24 19:13:22;;;;;;;35.55;19.67;;;;;;;3.64;86.65;102702.34;8276326;28;20502;-58
2023/01/24 19:17:24;;;;;;;33.08;18.90;;;;;;;3.63;87.33;102705.91;8290683;28;20085;-58
2023/01/24 19:21:26;;;;;;;31.33;17.80;;;;;;;3.63;87.18;102705.91;8267686;28;20039;-58
2023/01/24 19:25:27;;;;;;;33.60;18.75;;;;;;;3.57;87.42;102705.22;8286129;28;20068;-58
2023/01/24 19:29:30;;;;;;;28.70;16.75;;;;;;;3.57;86.41;102710.56;8264217;28;20042;-61
2023/01/24 19:33:31;;;;;;;37.75;17.17;;;;;;;3.61;86.44;102712.22;8281659;28;20044;-59
2023/01/24 19:37:32;;;;;;;31.27;16.30;;;;;;;3.60;86.58;102713.16;8278471;28;20497;-56
2023/01/24 19:41:32;;;;;;;35.75;20.50;;;;;;;3.57;86.16;102708.75;8283392;28;20038;-57
2023/01/24 19:45:34;;;;;;;35.95;19.05;;;;;;;3.55;86.66;102707.94;8269090;28;20447;-57
2023/01/24 19:49:34;;;;;;;35.67;18.80;;;;;;;3.54;86.96;102707.97;8273127;28;20046;-59
2023/01/24 19:53:36;;;;;;;36.75;20.65;;;;;;;3.48;87.80;102706.31;8282288;28;20041;-58
2023/01/24 19:57:36;;;;;;;36.33;21.02;;;;;;;3.51;88.38;102710.75;8260730;28;20901;-57
2023/01/24 20:01:37;;;;;;;42.28;23.13;;;;;;;3.46;88.69;102708.19;8263020;28;20088;-58
2023/01/24 20:05:37;;;;;;;34.80;18.83;;;;;;;3.46;89.34;102708.19;8262910;28;20050;-58